空港情報

日本の空港の気象及び、管制情報です。
気象情報はより詳細な情報が取得できる「AVIATION WEATER CENTER」 から取得しているため、VATSIMの気象情報と若干のタイムラグが生じることがあります。

VRCのフィールド設定用空港一覧はこちらをご覧ください。

RJCG Sapporo Control

RJCW / Wakkanai
VMC

NO RADAR

RADIO

08/26 2200x45

民間 civil

9999

280@13KT

30.03

RJCW 200000Z 28013KT 9999 FEW020 SCT040 BKN050 04/M03 Q1017

RJER / Rishiri

NO RADAR

REMOTE

25/07 1800x45

民間 civil

過去5時間に発表されたMETARがありません。

RJEB / Monbetsu
VMC

NO RADAR

REMOTE

32/14 2000x45

民間 civil

9999

280@8KT

30.00

RJEB 200000Z 28008KT 9999 FEW030 SCT/// 03/M03 Q1016

RJCM / Memanbetsu
VMC

NO RADAR

TOWER

36/18 2500x45

民間 civil

9999

310@5KT

30.00

RJCM 200000Z 31005KT 240V340 9999 FEW020 03/M04 Q1016

RJEC / Asahikawa
VMC

NO RADAR

TOWER

34/16 2500x60

民間 civil

9999

170@6KT

30.00

RJEC 200000Z 17006KT 9999 FEW005 BKN050 00/M02 Q1016

RJCN / Nakashibetsu
VMC

NO RADAR

RADIO

08/26 2000x45

民間 civil

9999

130@7KT

29.94

RJCN 200000Z 13007KT 090V190 9999 FEW020 05/M01 Q1014

RJCK / Kushiro
VMC

NO RADAR

TOWER

17/35 2500x45

民間 civil

9999

330@5KT

30.00

RJCK 200000Z 33005KT 9999 FEW020 03/M03 Q1016

RJCO / Sapporo
VMC

RJCO_APP

TOWER

14/32 1500x30

共用 dual

9999

290@6KT

30.06

RJCO 192114Z 29006KT 9999 -SHSN FEW010 BKN035 BKN050 04/M02 Q1018 RMK 1ST010 5CU035 7CU050 A3006

RJCJ / Chitose

RJCC_APP

TOWER

36R/18L 3000x60
36L/18R 2700x45

自衛隊 military

過去5時間に発表されたMETARがありません。

RJCC / NewChitose
VMC

RJCC_APP

TOWER

01L/19R 3000x60
01R/19L 3000x60

民間 civil

9999

000@2KT

30.06

RJCC 200030Z VRB02KT 9999 FEW025 05/M01 Q1018 RMK 1CU025 A3007

RJCB / Obihiro
VMC

NO RADAR

TOWER

35/17 2500x45

民間 civil

9999

350@8KT

30.00

RJCB 200000Z 35008KT 9999 FEW040 03/M03 Q1016

RJEO / Okushiri

NO RADAR

REMOTE

12/30 1500x45

民間 civil

過去5時間に発表されたMETARがありません。

RJCH / Hakodate
VMC

RJCH_APP

TOWER

12/30 3000x45

民間 civil

9999

300@6KT

30.06

RJCH 200000Z 30006KT 9999 FEW030 BKN050 BKN070 06/M03 Q1018

RJSA / Aomori
VMC

NO RADAR

TOWER

24/06 3000x60

民間 civil

9999

000@1KT

30.06

RJSA 200000Z VRB01KT 9999 FEW020 BKN050 06/M02 Q1018

RJSO / Ominato

RJSM_APP

TOWER

04/22 600x45

自衛隊 military

過去5時間に発表されたMETARがありません。

RJSM / Misawa

RJSM_APP

TOWER

10/28 3050x45

共用 dual

過去5時間に発表されたMETARがありません。

RJSH / Hachinohe

RJSM_APP

TOWER

25/07 2250x45

自衛隊 military

過去5時間に発表されたMETARがありません。

RJSK / Akita
VMC

NO RADAR

TOWER

10/28 2500x60

民間 civil

9999

160@3KT

30.09

RJSK 200000Z 16003KT 120V190 9999 FEW030 BKN070 04/02 Q1019

RJSI / Hanamaki
VMC

NO RADAR

RADIO

20/02 2500x45

民間 civil

9999

360@3KT

30.09

RJSI 200000Z 36003KT 330V070 9999 FEW030 SCT050 04/01 Q1019

RJSR / Odate-Noshiro
VMC

NO RADAR

REMOTE

11/29 2000x45

民間 civil

9999

000@2KT

30.09

RJSR 200000Z VRB02KT 9999 FEW003 SCT040 03/03 Q1019

RJTG Tokyo Control

RJSY / Shonai
VMC

NO RADAR

RADIO

09/27 2000x45

民間 civil

9999

000@3KT

30.09

RJSY 200000Z VRB03KT 9999 -SHRA FEW020 BKN050 08/03 Q1019

RJSC / Yamagata
VMC

NO RADAR

RADIO

01/19 2000x45

民間 civil

9999

260@3KT

30.09

RJSC 200000Z 26003KT 210V290 9999 FEW040 06/03 Q1019

RJST / Matsushima

RJSS_APP

TOWER

07/25 2071x46
15/33 1500x46

自衛隊 military

過去5時間に発表されたMETARがありません。

RJSS / Sendai
VMC

RJSS_APP

TOWER

27/09 3000x45
12/30 1200x45

民間 civil

9999

060@4KT

30.09

RJSS 200000Z 06004KT 020V120 9999 FEW030 09/M01 Q1019

RJSD / Sado

NO RADAR

REMOTE

10/28 890x25

民間 civil

過去5時間に発表されたMETARがありません。

RJSN / Niigata
VMC

RJSN_APP

TOWER

10/28 2500x45
04/22 1314x45

民間 civil

9999

190@6KT

30.12

RJSN 200000Z 19006KT 9999 -SHRA FEW015 SCT030 BKN040 08/05 Q1020

RJSF / Fukushima
VMC

NO RADAR

RADIO

01/19 2500x60

民間 civil

9999

020@9KT

30.06

RJSF 200000Z 02009KT 9999 FEW030 07/M01 Q1018

RJAH / Ibaraki/Hyakuri
VMC

RJAH_APP

TOWER

03L/21R 2700x45
03R/21L 2700x45

共用 dual

9999

040@6KT

30.06

RJAH 200000Z 04006KT 9999 FEW020 BKN080 11/05 Q1018

RJTT / Tokyo
VMC

RJTT_APP

TOWER

34LR/16RL 3000x60
04/22&05/23 2500x60

民間 civil

9999

040@12KT

30.06

RJTT 200030Z 04012KT 9999 FEW030 SCT070 13/04 Q1018 NOSIG RMK 1CU030 4AC070 A3009

RJAA / Narita
VMC

RJTT_APP

TOWER

34L/16R 4000x60
34R/16L 2500x60

民間 civil

9999

040@11KT

30.09

RJAA 200030Z 04011KT 360V070 9999 FEW030 BKN060 12/05 Q1019 NOSIG RMK 1CU030 6SC060 A3009

RJTL / Shimofusa

RJTT_APP

TOWER

19/01 2250x45

自衛隊 military

過去5時間に発表されたMETARがありません。

RJTE / Tateyama

RJTT_APP

TOWER

09/27 300x45

自衛隊 military

過去5時間に発表されたMETARがありません。

RJTO / Oshima
VMC

NO RADAR

RADIO

03/21 1800x45

民間 civil

9999

030@16KT

30.06

RJTO 200000Z 03016KT 9999 FEW025 SCT030 13/07 Q1018

RJTK / Kisarazu

NO RADAR

TOWER

02/20 1830x45

自衛隊 military

過去5時間に発表されたMETARがありません。

RJAN / Niijima

NO RADAR

REMOTE

11/29 800x25

自衛隊 military

過去5時間に発表されたMETARがありません。

RJAZ / Kozushima

NO RADAR

REMOTE

11/29 800x25

民間 civil

過去5時間に発表されたMETARがありません。

RJTH / Hachijojima

NO RADAR

RADIO

26/08 2000x45

民間 civil

過去5時間に発表されたMETARがありません。

RJTF / Chofu
VMC

NO RADAR

Flight Service

35/17 800x30

民間 civil

9999

050@9KT

30.06

RJTF 200000Z 05009KT 010V080 9999 FEW030 BKN060 13/01 Q1018

RJTQ / Miyake

NO RADAR

REMOTE

02/20 1200x30

民間 civil

過去5時間に発表されたMETARがありません。

RJTC / Tachikawa

NO RADAR

TOWER

01/19 900x45

自衛隊 military

過去5時間に発表されたMETARがありません。

RJTA / Atsugi

NO RADAR

TOWER

01/19 2438x45

自衛隊 military

過去5時間に発表されたMETARがありません。

RJTU / Utsunomiya

RJTY_APP

TOWER

01/19 1700x45

自衛隊 military

過去5時間に発表されたMETARがありません。

RJTJ / Iruma

RJTY_APP

TOWER

17/35 2000x45

自衛隊 military

過去5時間に発表されたMETARがありません。

RJTY / Yokota
VMC

RJTY_APP

TOWER

18/36 3353x60

自衛隊 military

9999

050@5KT

30.13

RJTY 192356Z AUTO 05005KT 10SM OVC050 10/02 A3013 RMK AO2 SLP209 60000 T01020021 10103 20074 52022 FZRANO $

RJAF / Matsumoto
VMC

NO RADAR

RADIO

18/36 2000x45

民間 civil

9999

350@4KT

30.09

RJAF 200000Z 35004KT 300V070 9999 FEW020 05/00 Q1019

RJNS / Shizuoka
VMC

NO RADAR

RADIO

30/12 2500x60

民間 civil

9999

050@4KT

30.00

RJNS 200000Z 05004KT 340V100 9999 FEW020 13/07 Q1016

RJNY / Yaizu-Shizuhama
VMC

NO RADAR

TOWER

27/09 1500x45

自衛隊 military

9999

000@1KT

29.94

RJNY 192018Z VRB01KT 9999 FEW020 SCT050 11/10 Q1014 RMK 1CU020 4SC050 A2996

RJNH / Hamamatsu

RJNH_APP

TOWER

09/27 2550x60

自衛隊 military

過去5時間に発表されたMETARがありません。

RJGG / Chubu
VMC

RJGG_APP

TOWER

36/18 3500x60

民間 civil

9999

330@14KT

30.09

RJGG 200030Z 33014KT 9999 FEW025 14/02 Q1019 NOSIG

RJNA / Nagoya

RJGG_APP

TOWER

34/16 2740x45

民間 civil

過去5時間に発表されたMETARがありません。

RJNG / Gifu

RJGG_APP

TOWER

28/10 2710x46

自衛隊 military

過去5時間に発表されたMETARがありません。

RJOE / Akeno

RJOE_APP

TOWER

13/31 500x30
04/22 500x30

自衛隊 military

過去5時間に発表されたMETARがありません。

RJNK / Komatsu
VMC

RJNK_APP

TOWER

06/24 2700x45

共用 dual

9999

000@2KT

30.15

RJNK 200000Z VRB02KT 9999 FEW030 10/03 Q1021

RJNW / Noto
VMC

NO RADAR

RADIO

25/07 2000x45

民間 civil

9999

070@3KT

30.12

RJNW 200000Z 07003KT 9999 FEW030 SCT080 09/04 Q1020

RJNT / Toyama
VMC

NO RADAR

TOWER

20/02 2000x45

民間 civil

9999

150@3KT

30.15

RJNT 200000Z 15003KT 100V240 9999 FEW030 08/05 Q1021

RJNF / Fukui

NO RADAR

REMOTE

18/36 1200x30

民間 civil

過去5時間に発表されたMETARがありません。

RJBD / Nanki-Shirahama
VMC

NO RADAR

RADIO

15/33 2000x45

民間 civil

9999

330@12KT

30.12

RJBD 200000Z 33012KT 290V360 9999 FEW035 13/03 Q1020

RJOY / Yao
VMC

RJBB_APP

TOWER

27/09 1490x45
13/31 1200x30

民間 civil

9999

000@1KT

30.15

RJOY 200000Z VRB01KT 9999 FEW025 11/07 Q1021

RJOO / Osaka
VMC

RJBB_APP

TOWER

32L/14R 3000x60
32R/14L 1830x45

民間 civil

9999

320@6KT

30.15

RJOO 200000Z 32006KT 9999 FEW025 12/03 Q1021 RMK 1CU025 A3015

RJOB / Okayama
VMC

RJBB_APP

TOWER

07/25 3000x45

民間 civil

9999

020@4KT

30.15

RJOB 200000Z 02004KT 340V080 9999 FEW020 11/05 Q1021

RJBB / Kansai
VMC

RJBB_APP

TOWER

06R/24L 3500x60
06L/24R 4000x60

民間 civil

9999

340@13KT

30.15

RJBB 200030Z 34013KT 9999 FEW025 14/05 Q1021 NOSIG

RJBE / Kobe
VMC

RJBB_APP

TOWER

09/27 2500x60

民間 civil

9999

320@9KT

30.15

RJBE 200000Z 32009KT 9999 FEW020 SCT070 12/04 Q1021

RJBT / Tajima
VMC

NO RADAR

REMOTE

01/19 1200x30

民間 civil

5000

190@4KT

30.15

RJBT 200042Z 19004KT 140V250 5000 BCFG FEW000 SCT070 08/08 Q1021 RMK 1ST000 3AC070 A3016 FG ALL QUAD

RJOR / Tottori
VMC

NO RADAR

RADIO

10/28 2000x45

民間 civil

9999

140@7KT

30.15

RJOR 200000Z 14007KT 9999 FEW020 SCT070 08/08 Q1021

RJNO / Oki

NO RADAR

REMOTE

07/25 2000x45

民間 civil

過去5時間に発表されたMETARがありません。

RJOH / Miho
VMC

RJOH_APP

TOWER

25/07 2500x45

共用 dual

9999

210@4KT

30.18

RJOH 200000Z 21004KT 9999 -SHRA FEW025 BKN035 BKN070 10/07 Q1022

RJOC / Izumo
VMC

RJOH_APP

RADIO

07/25 2000x45

共用 dual

9999

190@5KT

30.18

RJOC 200000Z 19005KT 9999 FEW002 SCT040 BKN050 10/07 Q1022

RJDG Fukuoka Control

RJOT / Takamatsu
VMC

RJBB_APP

TOWER

26/08 2500x60

民間 civil

9999

240@5KT

30.15

RJOT 200000Z 24005KT 9999 FEW020 12/06 Q1021

RJOK / Kochi
VMC

RJBB_APP

TOWER

32/14 2500x45

民間 civil

9999

010@3KT

30.15

RJOK 200000Z 01003KT 340V050 9999 FEW030 SCT050 14/04 Q1021

RJOS / Tokushima
VMC

RJOS_APP

TOWER

29/11 2500x45

共用 dual

9999

320@10KT

30.12

RJOS 192252Z 32010KT 9999 FEW030 SCT050 11/06 Q1020 RMK 2CU030 3SC050 A3014

RJOA / Hiroshima
VMC

RJOA_APP

TOWER

10/28 3000x60

民間 civil

9999

310@4KT

30.15

RJOA 200000Z 31004KT 9999 FEW025 BKN050 08/02 Q1021

RJBH / Hiroshimanishi

NO RADAR

Flight Service

04/22 1800x45

民間 civil

過去5時間に発表されたMETARがありません。

RJOI / Iwakuni
VMC

RJOI_APP

TOWER

02/20 2440x60

共用 dual

9999

310@8KT

30.20

RJOI 192355Z 31008KT 9999 FEW025 11/04 A3020 RMK SLP225 T01110044 10111 20083 52010

RJOM / Matsuyama
VMC

RJOI_APP

TOWER

14/32 2500x45

民間 civil

9999

120@8KT

30.18

RJOM 200000Z 12008KT 9999 FEW030 12/05 Q1022

RJOZ / Ozuki

RJFZ_APP

TOWER

35/17 1201x61
12/30 899x46

自衛隊 military

過去5時間に発表されたMETARがありません。

RJOF / Hofu

RJFZ_APP

TOWER

30/12 1180x60
01/19 1480x45

自衛隊 military

過去5時間に発表されたMETARがありません。

RJDC / Yamaguchi-Ube
VMC

RJFZ_APP

RADIO

07/25 2500x45

民間 civil

9999

340@3KT

30.18

RJDC 200000Z 34003KT 320V020 9999 FEW030 BKN050 11/06 Q1022

RJFR / Kitakyushu
VMC

RJFZ_APP

TOWER

18/36 2500x60

民間 civil

9999

000@2KT

30.18

RJFR 200000Z VRB02KT 9999 FEW040 13/06 Q1022

RJFZ / Tsuiki

RJFZ_APP

TOWER

25/07 2399x46

自衛隊 military

過去5時間に発表されたMETARがありません。

RJOW / Iwami
VMC

NO RADAR

REMOTE

11/29 2000x45

民間 civil

9999

160@5KT

30.18

RJOW 200000Z 16005KT 9999 FEW020 SCT060 10/06 Q1022

RJDT / Tsushima
VMC

NO RADAR

REMOTE

32/14 1900x45

民間 civil

9999

350@8KT

30.21

RJDT 200000Z 35008KT 310V040 9999 FEW040 12/03 Q1023

RJFF / Fukuoka
VMC

RJFF_APP

TOWER

16/34 2800x60

民間 civil

9999

150@3KT

30.21

RJFF 200030Z 15003KT 9999 FEW035 SCT050 12/08 Q1023 BECMG 36007KT

RJFS / Saga
VMC

RJFF_APP

RADIO

29/11 2000x45

民間 civil

9999

000@2KT

30.21

RJFS 200000Z VRB02KT 9999 FEW030 BKN050 09/08 Q1023

RJFA / Ashiya

RJFF_APP

TOWER

12/30 1640x46

自衛隊 military

過去5時間に発表されたMETARがありません。

RJDB / Iki

RJFF_APP

REMOTE

20/02 1200x30

民間 civil

過去5時間に発表されたMETARがありません。

RJFO / Oita
VMC

RJFO_APP

TOWER

01/19 3000x45

民間 civil

9999

280@6KT

30.18

RJFO 200000Z 28006KT 9999 FEW030 14/06 Q1022

RJFU / Nagasaki
VMC

RJFU_APP

TOWER

32/14 3000x60

民間 civil

9999

160@3KT

30.21

RJFU 200000Z 16003KT 130V200 9999 FEW050 BKN/// 12/07 Q1023

RJDU / Omura

RJFU_APP

TOWER

18/36 1200x30

自衛隊 military

過去5時間に発表されたMETARがありません。

RJFE / Fukue

NO RADAR

RADIO

03/21 2000x45

民間 civil

過去5時間に発表されたMETARがありません。

RJDO / Ojika

NO RADAR

REMOTE

03/21 800x30

民間 civil

過去5時間に発表されたMETARがありません。

RJDK / Kamigoto

NO RADAR

REMOTE

17/35 800x30

民間 civil

過去5時間に発表されたMETARがありません。

RJDA / Amakusa

NO RADAR

Flight Service

31/13 1000x30

民間 civil

過去5時間に発表されたMETARがありません。

RJFT / Kumamoto
VMC

RJFT_APP

TOWER

07/25 3000x45

民間 civil

9999

260@3KT

30.21

RJFT 200000Z 26003KT 230V290 9999 FEW035 11/07 Q1023

RJFN / Nyutabaru

RJFM_APP

TOWER

28/10 2701x46

自衛隊 military

過去5時間に発表されたMETARがありません。

RJFM / Miyazaki
VMC

RJFM_APP

TOWER

27/09 2500x45

民間 civil

9999

310@5KT

30.18

RJFM 200000Z 31005KT 9999 FEW030 12/08 Q1022

RJFK / Kagoshima
VMC

RJFK_APP

TOWER

34/16 3000x45

民間 civil

9999

340@5KT

30.18

RJFK 200000Z 34005KT CAVOK 11/06 Q1022 RMK A3020

RJFY / Kanoya

RJFY_APP

TOWER

26L/08R 2250x45
26R/08L 1200x40

自衛隊 military

過去5時間に発表されたMETARがありません。

RJFG / Tanegashima
VMC

NO RADAR

RADIO

31/13 2000x45

民間 civil

9999

360@4KT

30.18

RJFG 200000Z 36004KT 240V060 9999 FEW025 14/05 Q1022

RJFC / Yakushima

NO RADAR

REMOTE

14/32 1500x45

民間 civil

過去5時間に発表されたMETARがありません。

RJBG Kobe Control

ROAH / Naha
VMC

ROAH_APP

TOWER

36/18 3000x45

共用 dual

9999

050@12KT

30.12

ROAH 200030Z 05012KT 9999 FEW035 23/12 Q1020 RMK 1CU035 A3014

RORA / Aguni

ROAH_APP

REMOTE

01/19 800x25

民間 civil

過去5時間に発表されたMETARがありません。

ROKJ / Kumejima

ROAH_APP

REMOTE

03/21 2000x45

民間 civil

過去5時間に発表されたMETARがありません。

RODN / Kadena
VMC

ROAH_APP

TOWER

05L/23R 3688x91
05R/23L 3688x61

自衛隊 military

9999

020@11KT

30.15

RODN 192356Z 02011KT 10SM FEW050 22/13 A3015 RMK AO2A SLP216 T02200133 10220 20164 52021 PWINO $

ROTM / Futenma
VMC

ROAH_APP

TOWER

06/24 2740x45

自衛隊 military

9999

030@9KT

30.17

ROTM 192356Z 03009KT 9999 FEW030 22/14 A3017 RMK SLP201 T02170139 10217 20183 53003

RORS / Shimojishima
VMC

RORS_APP

TOWER

17/35 3000x60

民間 civil

9999

050@15KT

30.12

RORS 200000Z 05015KT 9999 FEW032 SCT060 24/17 Q1020

ROMY / Miyako
VMC

RORS_APP

TOWER

04/22 2000x45

民間 civil

9999

060@10KT

30.12

ROMY 200000Z 06010KT 030V090 9999 FEW031 SCT040 23/16 Q1020

ROIG / New Ishigaki
VMC

RORS_APP

TOWER

22/04 2000x45

民間 civil

9999

030@16KT

30.12

ROIG 200000Z 03016KT 9999 FEW032 BKN060 23/17 Q1020

RORT / Tarama

RORS_APP

REMOTE

36/18 1500x45

民間 civil

過去5時間に発表されたMETARがありません。

RJKA / Amami
VMC

NO RADAR

RADIO

03/21 2000x45

民間 civil

9999

020@15KT

30.15

RJKA 200000Z 02015KT 9999 FEW040 BKN090 20/12 Q1021

RJKI / Kikai

NO RADAR

REMOTE

07/25 1200x30

民間 civil

過去5時間に発表されたMETARがありません。

RJKN / Tokunoshima

NO RADAR

REMOTE

19/01 2000x45

民間 civil

過去5時間に発表されたMETARがありません。

RJKB / Okierabu

NO RADAR

REMOTE

04/22 1350x45

民間 civil

過去5時間に発表されたMETARがありません。

RORY / Yoron
VMC

NO RADAR

REMOTE

32/14 1320x30

民間 civil

9999

010@11KT

30.15

RORY 200000Z AUTO 01011KT 9999 NSC 22/12 Q1021

RORK / Kitadaito

NO RADAR

REMOTE

03/21 1500x45

民間 civil

過去5時間に発表されたMETARがありません。

ROMD / Minami-daito

NO RADAR

REMOTE

02/20 1500x45

民間 civil

過去5時間に発表されたMETARがありません。

ROYN / Yonaguni
VMC

NO RADAR

REMOTE

26/08 2000x45

民間 civil

9999

070@15KT

30.12

ROYN 200000Z AUTO 07015KT 9999 SCT033 SCT042 BKN048 24/17 Q1020

RORH / Hateruma

NO RADAR

REMOTE

02/20 800x25

民間 civil

過去5時間に発表されたMETARがありません。

ROKR / Kerama

NO RADAR

REMOTE

02/20 800x25

民間 civil

過去5時間に発表されたMETARがありません。